sensor_id;sensor_type;location;lat;lon;timestamp;pressure;altitude;pressure_sealevel;temperature;humidity
80118;BME280;69424;48.770;-1.564;2024-02-15T00:00:16;101528.29;;;13.93;80.69
80118;BME280;69424;48.770;-1.564;2024-02-15T00:01:22;101524.55;;;13.93;80.82
80118;BME280;69424;48.770;-1.564;2024-02-15T00:01:55;101524.92;;;13.93;80.41
80118;BME280;69424;48.770;-1.564;2024-02-15T00:02:29;101524.02;;;13.92;80.50
80118;BME280;69424;48.770;-1.564;2024-02-15T00:03:02;101527.39;;;13.92;80.50
80118;BME280;69424;48.770;-1.564;2024-02-15T00:03:36;101525.95;;;13.91;80.22
80118;BME280;69424;48.770;-1.564;2024-02-15T00:04:09;101522.77;;;13.91;80.31
80118;BME280;69424;48.770;-1.564;2024-02-15T00:04:44;101525.23;;;13.91;80.36
80118;BME280;69424;48.770;-1.564;2024-02-15T00:05:17;101525.77;;;13.90;80.37
80118;BME280;69424;48.770;-1.564;2024-02-15T00:05:50;101525.77;;;13.90;80.52
80118;BME280;69424;48.770;-1.564;2024-02-15T00:06:23;101523.99;;;13.89;80.47
80118;BME280;69424;48.770;-1.564;2024-02-15T00:06:57;101525.94;;;13.89;80.34
80118;BME280;69424;48.770;-1.564;2024-02-15T00:07:30;101524.52;;;13.88;80.10
80118;BME280;69424;48.770;-1.564;2024-02-15T00:08:03;101524.16;;;13.88;80.47
80118;BME280;69424;48.770;-1.564;2024-02-15T00:08:37;101521.85;;;13.87;80.47
80118;BME280;69424;48.770;-1.564;2024-02-15T00:09:10;101524.86;;;13.88;80.58
80118;BME280;69424;48.770;-1.564;2024-02-15T00:09:43;101519.53;;;13.88;80.43
80118;BME280;69424;48.770;-1.564;2024-02-15T00:10:16;101522.56;;;13.89;80.65
80118;BME280;69424;48.770;-1.564;2024-02-15T00:10:50;101519.54;;;13.89;80.45
80118;BME280;69424;48.770;-1.564;2024-02-15T00:11:23;101523.98;;;13.89;80.45
80118;BME280;69424;48.770;-1.564;2024-02-15T00:11:56;101519.38;;;13.91;80.50
80118;BME280;69424;48.770;-1.564;2024-02-15T00:12:31;101519.39;;;13.93;80.67
80118;BME280;69424;48.770;-1.564;2024-02-15T00:13:04;101529.36;;;13.93;80.36
80118;BME280;69424;48.770;-1.564;2024-02-15T00:13:39;101525.81;;;13.95;80.35
80118;BME280;69424;48.770;-1.564;2024-02-15T00:14:12;101518.89;;;13.96;80.43
80118;BME280;69424;48.770;-1.564;2024-02-15T00:14:45;101523.70;;;13.97;80.36
80118;BME280;69424;48.770;-1.564;2024-02-15T00:15:18;101519.95;;;13.98;80.21
80118;BME280;69424;48.770;-1.564;2024-02-15T00:15:52;101524.40;;;13.98;79.97
80118;BME280;69424;48.770;-1.564;2024-02-15T00:16:25;101526.54;;;13.98;80.18
80118;BME280;69424;48.770;-1.564;2024-02-15T00:17:00;101520.84;;;13.97;79.86
80118;BME280;69424;48.770;-1.564;2024-02-15T00:17:37;101514.98;;;13.97;80.11
80118;BME280;69424;48.770;-1.564;2024-02-15T00:18:10;101514.98;;;13.97;80.11
80118;BME280;69424;48.770;-1.564;2024-02-15T00:18:44;101521.39;;;13.97;80.06
80118;BME280;69424;48.770;-1.564;2024-02-15T00:19:18;101519.59;;;13.96;80.36
80118;BME280;69424;48.770;-1.564;2024-02-15T00:19:51;101518.53;;;13.96;80.36
80118;BME280;69424;48.770;-1.564;2024-02-15T00:20:24;101515.86;;;13.96;80.21
80118;BME280;69424;48.770;-1.564;2024-02-15T00:20:57;101519.95;;;13.96;80.20
80118;BME280;69424;48.770;-1.564;2024-02-15T00:21:33;101516.73;;;13.95;79.99
80118;BME280;69424;48.770;-1.564;2024-02-15T00:22:06;101515.50;;;13.94;79.74
80118;BME280;69424;48.770;-1.564;2024-02-15T00:22:39;101518.52;;;13.95;79.78
80118;BME280;69424;48.770;-1.564;2024-02-15T00:23:13;101517.63;;;13.94;79.91
80118;BME280;69424;48.770;-1.564;2024-02-15T00:23:49;101514.63;;;13.95;80.18
80118;BME280;69424;48.770;-1.564;2024-02-15T00:24:23;101519.95;;;13.96;80.02
80118;BME280;69424;48.770;-1.564;2024-02-15T00:24:57;101520.31;;;13.96;79.94
80118;BME280;69424;48.770;-1.564;2024-02-15T00:25:31;101516.05;;;13.97;79.99
80118;BME280;69424;48.770;-1.564;2024-02-15T00:26:04;101518.52;;;13.98;79.96
80118;BME280;69424;48.770;-1.564;2024-02-15T00:26:38;101518.55;;;14.00;80.08
80118;BME280;69424;48.770;-1.564;2024-02-15T00:27:11;101517.67;;;13.99;80.10
80118;BME280;69424;48.770;-1.564;2024-02-15T00:27:45;101517.48;;;14.00;79.86
80118;BME280;69424;48.770;-1.564;2024-02-15T00:28:19;101515.02;;;14.01;79.75
80118;BME280;69424;48.770;-1.564;2024-02-15T00:28:53;101517.84;;;14.01;79.68
80118;BME280;69424;48.770;-1.564;2024-02-15T00:29:26;101518.02;;;14.01;79.72
80118;BME280;69424;48.770;-1.564;2024-02-15T00:30:03;101514.29;;;14.01;79.88
80118;BME280;69424;48.770;-1.564;2024-02-15T00:30:45;101511.09;;;14.01;79.94
80118;BME280;69424;48.770;-1.564;2024-02-15T00:31:24;101507.17;;;14.01;79.73
80118;BME280;69424;48.770;-1.564;2024-02-15T00:31:57;101501.67;;;14.01;79.61
80118;BME280;69424;48.770;-1.564;2024-02-15T00:32:31;101504.86;;;14.00;79.69
80118;BME280;69424;48.770;-1.564;2024-02-15T00:33:04;101500.59;;;13.99;79.59
80118;BME280;69424;48.770;-1.564;2024-02-15T00:33:38;101502.54;;;13.99;79.63
80118;BME280;69424;48.770;-1.564;2024-02-15T00:34:12;101501.11;;;13.99;79.67
80118;BME280;69424;48.770;-1.564;2024-02-15T00:35:10;101502.71;;;13.99;79.61
80118;BME280;69424;48.770;-1.564;2024-02-15T00:35:44;101504.31;;;13.99;79.80
80118;BME280;69424;48.770;-1.564;2024-02-15T00:36:17;101504.13;;;13.98;79.39
80118;BME280;69424;48.770;-1.564;2024-02-15T00:36:50;101510.00;;;13.99;79.61
80118;BME280;69424;48.770;-1.564;2024-02-15T00:37:23;101504.13;;;13.98;79.40
80118;BME280;69424;48.770;-1.564;2024-02-15T00:37:57;101503.77;;;13.98;79.63
80118;BME280;69424;48.770;-1.564;2024-02-15T00:38:31;101502.35;;;13.97;79.64
80118;BME280;69424;48.770;-1.564;2024-02-15T00:39:05;101502.54;;;13.98;79.32
80118;BME280;69424;48.770;-1.564;2024-02-15T00:39:39;101504.13;;;13.97;79.46
80118;BME280;69424;48.770;-1.564;2024-02-15T00:40:13;101497.20;;;13.98;79.24
80118;BME280;69424;48.770;-1.564;2024-02-15T00:40:46;101496.65;;;13.96;79.18
80118;BME280;69424;48.770;-1.564;2024-02-15T00:41:22;101500.39;;;13.96;79.19
80118;BME280;69424;48.770;-1.564;2024-02-15T00:41:55;101496.48;;;13.96;79.13
80118;BME280;69424;48.770;-1.564;2024-02-15T00:42:30;101496.84;;;13.96;79.32
80118;BME280;69424;48.770;-1.564;2024-02-15T00:43:04;101493.98;;;13.96;79.29
80118;BME280;69424;48.770;-1.564;2024-02-15T00:43:38;101495.59;;;13.95;79.41
80118;BME280;69424;48.770;-1.564;2024-02-15T00:44:11;101496.48;;;13.95;79.51
80118;BME280;69424;48.770;-1.564;2024-02-15T00:44:44;101498.44;;;13.95;79.48
80118;BME280;69424;48.770;-1.564;2024-02-15T00:45:17;101502.33;;;13.94;79.46
80118;BME280;69424;48.770;-1.564;2024-02-15T00:45:51;101502.33;;;13.93;79.45
80118;BME280;69424;48.770;-1.564;2024-02-15T00:46:24;101506.95;;;13.93;79.11
80118;BME280;69424;48.770;-1.564;2024-02-15T00:46:59;101501.78;;;13.93;79.43
80118;BME280;69424;48.770;-1.564;2024-02-15T00:47:33;101501.24;;;13.92;79.48
80118;BME280;69424;48.770;-1.564;2024-02-15T00:48:06;101503.92;;;13.92;79.41
80118;BME280;69424;48.770;-1.564;2024-02-15T00:48:40;101501.95;;;13.93;79.32
80118;BME280;69424;48.770;-1.564;2024-02-15T00:49:14;101501.61;;;13.93;79.15
80118;BME280;69424;48.770;-1.564;2024-02-15T00:49:47;101501.25;;;13.92;78.96
80118;BME280;69424;48.770;-1.564;2024-02-15T00:50:23;101501.97;;;13.93;78.95
80118;BME280;69424;48.770;-1.564;2024-02-15T00:50:57;101499.83;;;13.93;79.27
80118;BME280;69424;48.770;-1.564;2024-02-15T00:51:31;101503.57;;;13.93;79.17
80118;BME280;69424;48.770;-1.564;2024-02-15T00:52:05;101503.22;;;13.94;79.26
80118;BME280;69424;48.770;-1.564;2024-02-15T00:52:41;101499.30;;;13.94;79.13
80118;BME280;69424;48.770;-1.564;2024-02-15T00:53:14;101497.35;;;13.94;79.19
80118;BME280;69424;48.770;-1.564;2024-02-15T00:53:47;101496.11;;;13.93;79.10
80118;BME280;69424;48.770;-1.564;2024-02-15T00:54:20;101494.14;;;13.92;79.15
80118;BME280;69424;48.770;-1.564;2024-02-15T00:54:55;101494.50;;;13.92;79.06
80118;BME280;69424;48.770;-1.564;2024-02-15T00:55:28;101494.48;;;13.90;79.29
80118;BME280;69424;48.770;-1.564;2024-02-15T00:56:01;101491.27;;;13.89;79.12
80118;BME280;69424;48.770;-1.564;2024-02-15T00:56:34;101488.59;;;13.88;79.18
80118;BME280;69424;48.770;-1.564;2024-02-15T00:57:08;101484.33;;;13.87;79.27
80118;BME280;69424;48.770;-1.564;2024-02-15T00:57:41;101488.05;;;13.86;79.12
80118;BME280;69424;48.770;-1.564;2024-02-15T00:58:14;101488.58;;;13.85;79.15
80118;BME280;69424;48.770;-1.564;2024-02-15T00:58:47;101487.14;;;13.84;79.06
80118;BME280;69424;48.770;-1.564;2024-02-15T00:59:21;101485.71;;;13.83;79.13
80118;BME280;69424;48.770;-1.564;2024-02-15T00:59:55;101487.84;;;13.82;79.20
80118;BME280;69424;48.770;-1.564;2024-02-15T01:00:28;101484.09;;;13.81;79.17
80118;BME280;69424;48.770;-1.564;2024-02-15T01:01:02;101482.30;;;13.80;79.06
80118;BME280;69424;48.770;-1.564;2024-02-15T01:01:35;101482.67;;;13.81;79.11
80118;BME280;69424;48.770;-1.564;2024-02-15T01:02:11;101487.66;;;13.81;78.98
80118;BME280;69424;48.770;-1.564;2024-02-15T01:02:45;101482.48;;;13.80;78.81
80118;BME280;69424;48.770;-1.564;2024-02-15T01:03:19;101480.35;;;13.80;79.03
80118;BME280;69424;48.770;-1.564;2024-02-15T01:03:52;101480.72;;;13.81;79.12
80118;BME280;69424;48.770;-1.564;2024-02-15T01:04:26;101479.46;;;13.80;78.90
80118;BME280;69424;48.770;-1.564;2024-02-15T01:04:58;101476.63;;;13.81;78.92
80118;BME280;69424;48.770;-1.564;2024-02-15T01:05:32;101478.94;;;13.80;79.05
80118;BME280;69424;48.770;-1.564;2024-02-15T01:06:06;101481.05;;;13.79;78.98
80118;BME280;69424;48.770;-1.564;2024-02-15T01:06:40;101478.75;;;13.79;78.97
80118;BME280;69424;48.770;-1.564;2024-02-15T01:07:14;101479.45;;;13.79;78.72
80118;BME280;69424;48.770;-1.564;2024-02-15T01:07:47;101478.56;;;13.78;78.86
80118;BME280;69424;48.770;-1.564;2024-02-15T01:08:22;101477.13;;;13.76;78.86
80118;BME280;69424;48.770;-1.564;2024-02-15T01:08:55;101475.52;;;13.75;78.82
80118;BME280;69424;48.770;-1.564;2024-02-15T01:09:29;101476.74;;;13.73;79.01
80118;BME280;69424;48.770;-1.564;2024-02-15T01:10:02;101474.43;;;13.73;79.08
80118;BME280;69424;48.770;-1.564;2024-02-15T01:10:36;101477.27;;;13.71;79.06
80118;BME280;69424;48.770;-1.564;2024-02-15T01:11:09;101473.54;;;13.71;79.09
80118;BME280;69424;48.770;-1.564;2024-02-15T01:11:43;101477.97;;;13.70;79.12
80118;BME280;69424;48.770;-1.564;2024-02-15T01:12:16;101471.56;;;13.70;79.12
80118;BME280;69424;48.770;-1.564;2024-02-15T01:12:49;101475.30;;;13.70;78.90
80118;BME280;69424;48.770;-1.564;2024-02-15T01:13:23;101470.14;;;13.69;78.91
80118;BME280;69424;48.770;-1.564;2024-02-15T01:13:56;101477.42;;;13.69;78.94
80118;BME280;69424;48.770;-1.564;2024-02-15T01:14:29;101472.45;;;13.69;78.83
80118;BME280;69424;48.770;-1.564;2024-02-15T01:15:04;101475.30;;;13.69;78.90
80118;BME280;69424;48.770;-1.564;2024-02-15T01:15:37;101471.91;;;13.68;78.81
80118;BME280;69424;48.770;-1.564;2024-02-15T01:16:12;101470.66;;;13.68;78.91
80118;BME280;69424;48.770;-1.564;2024-02-15T01:16:45;101472.80;;;13.68;78.99
80118;BME280;69424;48.770;-1.564;2024-02-15T01:17:19;101474.40;;;13.67;79.18
80118;BME280;69424;48.770;-1.564;2024-02-15T01:17:52;101471.38;;;13.67;78.80
80118;BME280;69424;48.770;-1.564;2024-02-15T01:18:25;101469.42;;;13.67;79.00
80118;BME280;69424;48.770;-1.564;2024-02-15T01:19:00;101467.46;;;13.67;78.93
80118;BME280;69424;48.770;-1.564;2024-02-15T01:19:33;101467.45;;;13.67;78.82
80118;BME280;69424;48.770;-1.564;2024-02-15T01:20:07;101463.73;;;13.67;78.81
80118;BME280;69424;48.770;-1.564;2024-02-15T01:20:40;101468.54;;;13.67;78.88
80118;BME280;69424;48.770;-1.564;2024-02-15T01:21:13;101468.17;;;13.67;79.00
80118;BME280;69424;48.770;-1.564;2024-02-15T01:21:46;101466.04;;;13.66;78.90
80118;BME280;69424;48.770;-1.564;2024-02-15T01:22:20;101468.88;;;13.66;79.02
80118;BME280;69424;48.770;-1.564;2024-02-15T01:22:56;101467.09;;;13.65;79.05
80118;BME280;69424;48.770;-1.564;2024-02-15T01:23:29;101466.38;;;13.64;78.95
80118;BME280;69424;48.770;-1.564;2024-02-15T01:24:04;101468.50;;;13.63;78.99
80118;BME280;69424;48.770;-1.564;2024-02-15T01:24:39;101466.71;;;13.62;78.90
80118;BME280;69424;48.770;-1.564;2024-02-15T01:25:13;101465.99;;;13.61;78.99
80118;BME280;69424;48.770;-1.564;2024-02-15T01:25:48;101466.54;;;13.62;79.06
80118;BME280;69424;48.770;-1.564;2024-02-15T01:26:21;101466.89;;;13.62;79.03
80118;BME280;69424;48.770;-1.564;2024-02-15T01:26:56;101466.88;;;13.62;78.82
80118;BME280;69424;48.770;-1.564;2024-02-15T01:27:30;101465.46;;;13.62;78.94
80118;BME280;69424;48.770;-1.564;2024-02-15T01:28:03;101471.88;;;13.63;78.95
80118;BME280;69424;48.770;-1.564;2024-02-15T01:28:36;101465.13;;;13.63;78.94
80118;BME280;69424;48.770;-1.564;2024-02-15T01:29:09;101463.52;;;13.63;78.75
80118;BME280;69424;48.770;-1.564;2024-02-15T01:29:45;101460.66;;;13.62;78.90
80118;BME280;69424;48.770;-1.564;2024-02-15T01:30:18;101463.68;;;13.63;79.01
80118;BME280;69424;48.770;-1.564;2024-02-15T01:30:51;101468.13;;;13.63;79.14
80118;BME280;69424;48.770;-1.564;2024-02-15T01:31:25;101464.02;;;13.62;79.04
80118;BME280;69424;48.770;-1.564;2024-02-15T01:31:57;101467.95;;;13.62;78.88
80118;BME280;69424;48.770;-1.564;2024-02-15T01:32:31;101468.12;;;13.60;78.91
80118;BME280;69424;48.770;-1.564;2024-02-15T01:33:04;101470.77;;;13.60;78.81
80118;BME280;69424;48.770;-1.564;2024-02-15T01:33:38;101465.96;;;13.57;78.72
80118;BME280;69424;48.770;-1.564;2024-02-15T01:34:11;101466.48;;;13.56;78.96
80118;BME280;69424;48.770;-1.564;2024-02-15T01:34:44;101469.52;;;13.56;78.98
80118;BME280;69424;48.770;-1.564;2024-02-15T01:35:18;101468.25;;;13.55;79.04
80118;BME280;69424;48.770;-1.564;2024-02-15T01:35:51;101466.29;;;13.55;78.92
80118;BME280;69424;48.770;-1.564;2024-02-15T01:36:24;101467.90;;;13.54;79.10
80118;BME280;69424;48.770;-1.564;2024-02-15T01:36:59;101466.12;;;13.55;79.02
80118;BME280;69424;48.770;-1.564;2024-02-15T01:37:33;101466.30;;;13.55;79.00
80118;BME280;69424;48.770;-1.564;2024-02-15T01:38:06;101468.45;;;13.56;78.93
80118;BME280;69424;48.770;-1.564;2024-02-15T01:38:40;101467.91;;;13.56;79.03
80118;BME280;69424;48.770;-1.564;2024-02-15T01:39:13;101465.42;;;13.57;79.39
80118;BME280;69424;48.770;-1.564;2024-02-15T01:39:46;101466.33;;;13.59;78.88
80118;BME280;69424;48.770;-1.564;2024-02-15T01:40:20;101460.48;;;13.60;79.05
80118;BME280;69424;48.770;-1.564;2024-02-15T01:40:53;101461.55;;;13.62;78.95
80118;BME280;69424;48.770;-1.564;2024-02-15T01:41:26;101459.23;;;13.62;78.83
80118;BME280;69424;48.770;-1.564;2024-02-15T01:41:59;101458.89;;;13.62;79.08
80118;BME280;69424;48.770;-1.564;2024-02-15T01:42:33;101460.13;;;13.62;78.84
80118;BME280;69424;48.770;-1.564;2024-02-15T01:43:06;101455.88;;;13.63;79.11
80118;BME280;69424;48.770;-1.564;2024-02-15T01:43:43;101458.89;;;13.63;79.18
80118;BME280;69424;48.770;-1.564;2024-02-15T01:44:18;101452.49;;;13.63;78.95
80118;BME280;69424;48.770;-1.564;2024-02-15T01:44:53;101454.28;;;13.63;78.90
80118;BME280;69424;48.770;-1.564;2024-02-15T01:45:27;101452.50;;;13.63;78.98
80118;BME280;69424;48.770;-1.564;2024-02-15T01:46:40;101448.40;;;13.63;78.99
80118;BME280;69424;48.770;-1.564;2024-02-15T01:47:13;101450.36;;;13.62;78.88
80118;BME280;69424;48.770;-1.564;2024-02-15T01:47:47;101450.88;;;13.62;79.13
80118;BME280;69424;48.770;-1.564;2024-02-15T01:48:21;101447.69;;;13.62;79.15
80118;BME280;69424;48.770;-1.564;2024-02-15T01:48:54;101448.41;;;13.63;79.12
80118;BME280;69424;48.770;-1.564;2024-02-15T01:49:29;101447.70;;;13.63;79.04
80118;BME280;69424;48.770;-1.564;2024-02-15T01:50:03;101448.78;;;13.64;79.07
80118;BME280;69424;48.770;-1.564;2024-02-15T01:50:36;101445.23;;;13.65;78.95
80118;BME280;69424;48.770;-1.564;2024-02-15T01:51:11;101445.41;;;13.66;78.84
80118;BME280;69424;48.770;-1.564;2024-02-15T01:51:48;101444.52;;;13.67;78.85
80118;BME280;69424;48.770;-1.564;2024-02-15T01:52:22;101446.14;;;13.67;79.14
80118;BME280;69424;48.770;-1.564;2024-02-15T01:52:57;101444.17;;;13.68;78.99
80118;BME280;69424;48.770;-1.564;2024-02-15T01:53:30;101442.59;;;13.68;78.74
80118;BME280;69424;48.770;-1.564;2024-02-15T01:54:05;101440.09;;;13.68;78.88
80118;BME280;69424;48.770;-1.564;2024-02-15T01:54:38;101441.16;;;13.69;78.95
80118;BME280;69424;48.770;-1.564;2024-02-15T01:55:12;101446.85;;;13.69;78.74
80118;BME280;69424;48.770;-1.564;2024-02-15T01:55:47;101439.75;;;13.69;78.93
80118;BME280;69424;48.770;-1.564;2024-02-15T01:56:22;101443.65;;;13.69;78.84
80118;BME280;69424;48.770;-1.564;2024-02-15T01:56:57;101438.85;;;13.69;78.85
80118;BME280;69424;48.770;-1.564;2024-02-15T01:57:30;101442.58;;;13.69;78.97
80118;BME280;69424;48.770;-1.564;2024-02-15T01:58:04;101439.02;;;13.69;79.02
80118;BME280;69424;48.770;-1.564;2024-02-15T01:58:39;101439.38;;;13.68;78.99
80118;BME280;69424;48.770;-1.564;2024-02-15T01:59:15;101442.77;;;13.68;78.98
80118;BME280;69424;48.770;-1.564;2024-02-15T01:59:50;101435.83;;;13.68;78.97
80118;BME280;69424;48.770;-1.564;2024-02-15T02:00:25;101439.56;;;13.68;78.93
80118;BME280;69424;48.770;-1.564;2024-02-15T02:01:00;101436.00;;;13.68;78.92
80118;BME280;69424;48.770;-1.564;2024-02-15T02:01:34;101436.17;;;13.68;78.73
80118;BME280;69424;48.770;-1.564;2024-02-15T02:02:08;101438.48;;;13.68;78.84
80118;BME280;69424;48.770;-1.564;2024-02-15T02:02:46;101437.78;;;13.68;78.73
80118;BME280;69424;48.770;-1.564;2024-02-15T02:03:21;101437.08;;;13.68;78.75
80118;BME280;69424;48.770;-1.564;2024-02-15T02:03:55;101436.54;;;13.68;78.88
80118;BME280;69424;48.770;-1.564;2024-02-15T02:04:29;101440.80;;;13.68;78.83
80118;BME280;69424;48.770;-1.564;2024-02-15T02:05:05;101439.21;;;13.68;78.79
80118;BME280;69424;48.770;-1.564;2024-02-15T02:05:39;101435.30;;;13.69;78.91
80118;BME280;69424;48.770;-1.564;2024-02-15T02:06:13;101432.80;;;13.69;79.05
80118;BME280;69424;48.770;-1.564;2024-02-15T02:06:47;101432.11;;;13.70;79.06
80118;BME280;69424;48.770;-1.564;2024-02-15T02:07:20;101429.96;;;13.69;78.92
80118;BME280;69424;48.770;-1.564;2024-02-15T02:07:54;101432.10;;;13.70;79.00
80118;BME280;69424;48.770;-1.564;2024-02-15T02:08:28;101430.32;;;13.70;79.06
80118;BME280;69424;48.770;-1.564;2024-02-15T02:09:04;101432.11;;;13.70;79.06
80118;BME280;69424;48.770;-1.564;2024-02-15T02:09:37;101429.79;;;13.70;78.98
80118;BME280;69424;48.770;-1.564;2024-02-15T02:10:18;101433.52;;;13.70;78.91
80118;BME280;69424;48.770;-1.564;2024-02-15T02:10:52;101427.83;;;13.69;79.08
80118;BME280;69424;48.770;-1.564;2024-02-15T02:11:26;101429.61;;;13.69;78.95
80118;BME280;69424;48.770;-1.564;2024-02-15T02:12:01;101428.36;;;13.69;79.11
80118;BME280;69424;48.770;-1.564;2024-02-15T02:12:34;101429.42;;;13.68;79.02
80118;BME280;69424;48.770;-1.564;2024-02-15T02:13:09;101426.94;;;13.68;78.91
80118;BME280;69424;48.770;-1.564;2024-02-15T02:13:43;101429.08;;;13.67;78.80
80118;BME280;69424;48.770;-1.564;2024-02-15T02:14:21;101426.59;;;13.67;78.95
80118;BME280;69424;48.770;-1.564;2024-02-15T02:14:54;101427.66;;;13.68;79.00
80118;BME280;69424;48.770;-1.564;2024-02-15T02:15:28;101424.98;;;13.68;79.12
80118;BME280;69424;48.770;-1.564;2024-02-15T02:16:25;101425.87;;;13.68;79.07
80118;BME280;69424;48.770;-1.564;2024-02-15T02:17:35;101427.66;;;13.69;79.15
80118;BME280;69424;48.770;-1.564;2024-02-15T02:18:13;101426.06;;;13.70;78.86
80118;BME280;69424;48.770;-1.564;2024-02-15T02:18:48;101425.89;;;13.70;79.11
80118;BME280;69424;48.770;-1.564;2024-02-15T02:19:22;101422.34;;;13.71;79.07
80118;BME280;69424;48.770;-1.564;2024-02-15T02:19:58;101422.69;;;13.71;79.00
80118;BME280;69424;48.770;-1.564;2024-02-15T02:20:32;101425.89;;;13.72;78.95
80118;BME280;69424;48.770;-1.564;2024-02-15T02:21:08;101420.38;;;13.72;79.05
80118;BME280;69424;48.770;-1.564;2024-02-15T02:21:43;101421.80;;;13.72;78.99
80118;BME280;69424;48.770;-1.564;2024-02-15T02:22:20;101416.66;;;13.72;79.14
80118;BME280;69424;48.770;-1.564;2024-02-15T02:22:54;101418.07;;;13.71;79.02
80118;BME280;69424;48.770;-1.564;2024-02-15T02:23:35;101411.50;;;13.71;79.03
80118;BME280;69424;48.770;-1.564;2024-02-15T02:24:13;101413.27;;;13.71;78.91
80118;BME280;69424;48.770;-1.564;2024-02-15T02:25:24;101411.84;;;13.70;79.16
80118;BME280;69424;48.770;-1.564;2024-02-15T02:26:02;101410.78;;;13.70;79.35
80118;BME280;69424;48.770;-1.564;2024-02-15T02:26:40;101406.69;;;13.69;79.15
80118;BME280;69424;48.770;-1.564;2024-02-15T02:27:16;101408.63;;;13.69;79.21
80118;BME280;69424;48.770;-1.564;2024-02-15T02:27:56;101400.98;;;13.69;79.18
80118;BME280;69424;48.770;-1.564;2024-02-15T02:28:35;101404.38;;;13.69;79.10
80118;BME280;69424;48.770;-1.564;2024-02-15T02:29:16;101401.36;;;13.70;79.17
80118;BME280;69424;48.770;-1.564;2024-02-15T02:29:55;101397.45;;;13.70;79.35
80118;BME280;69424;48.770;-1.564;2024-02-15T02:30:30;101399.23;;;13.70;79.23
80118;BME280;69424;48.770;-1.564;2024-02-15T02:31:06;101398.16;;;13.70;78.95
80118;BME280;69424;48.770;-1.564;2024-02-15T02:31:44;101398.88;;;13.71;78.98
80118;BME280;69424;48.770;-1.564;2024-02-15T02:32:17;101399.77;;;13.71;79.05
80118;BME280;69424;48.770;-1.564;2024-02-15T02:32:51;101397.64;;;13.71;79.22
80118;BME280;69424;48.770;-1.564;2024-02-15T02:33:25;101400.13;;;13.72;79.18
80118;BME280;69424;48.770;-1.564;2024-02-15T02:34:02;101403.33;;;13.72;79.00
80118;BME280;69424;48.770;-1.564;2024-02-15T02:34:37;101406.89;;;13.72;79.22
80118;BME280;69424;48.770;-1.564;2024-02-15T02:35:12;101404.75;;;13.72;79.08
80118;BME280;69424;48.770;-1.564;2024-02-15T02:35:45;101408.48;;;13.72;79.23
80118;BME280;69424;48.770;-1.564;2024-02-15T02:36:20;101407.59;;;13.72;79.23
80118;BME280;69424;48.770;-1.564;2024-02-15T02:36:54;101406.88;;;13.71;79.21
80118;BME280;69424;48.770;-1.564;2024-02-15T02:37:29;101404.91;;;13.70;79.25
80118;BME280;69424;48.770;-1.564;2024-02-15T02:38:05;101402.42;;;13.69;79.23
80118;BME280;69424;48.770;-1.564;2024-02-15T02:38:38;101399.58;;;13.68;79.22
80118;BME280;69424;48.770;-1.564;2024-02-15T02:39:13;101400.80;;;13.68;79.21
80118;BME280;69424;48.770;-1.564;2024-02-15T02:39:47;101401.70;;;13.68;79.27
80118;BME280;69424;48.770;-1.564;2024-02-15T02:40:21;101402.06;;;13.68;79.37
80118;BME280;69424;48.770;-1.564;2024-02-15T02:40:57;101396.00;;;13.69;79.41
80118;BME280;69424;48.770;-1.564;2024-02-15T02:41:36;101398.67;;;13.69;79.17
80118;BME280;69424;48.770;-1.564;2024-02-15T02:42:13;101394.23;;;13.68;79.23
80118;BME280;69424;48.770;-1.564;2024-02-15T02:42:49;101393.89;;;13.68;79.36
80118;BME280;69424;48.770;-1.564;2024-02-15T02:43:23;101394.59;;;13.68;79.24
80118;BME280;69424;48.770;-1.564;2024-02-15T02:43:57;101391.22;;;13.68;79.25
80118;BME280;69424;48.770;-1.564;2024-02-15T02:44:30;101390.15;;;13.69;79.33
80118;BME280;69424;48.770;-1.564;2024-02-15T02:45:04;101387.67;;;13.69;79.36
80118;BME280;69424;48.770;-1.564;2024-02-15T02:45:38;101375.75;;;13.70;79.53
80118;BME280;69424;48.770;-1.564;2024-02-15T02:46:15;101368.49;;;13.71;79.32
80118;BME280;69424;48.770;-1.564;2024-02-15T02:46:51;101365.29;;;13.71;79.40
80118;BME280;69424;48.770;-1.564;2024-02-15T02:47:25;101361.91;;;13.71;79.35
80118;BME280;69424;48.770;-1.564;2024-02-15T02:47:58;101354.80;;;13.72;79.52
80118;BME280;69424;48.770;-1.564;2024-02-15T02:48:32;101352.32;;;13.71;79.20
80118;BME280;69424;48.770;-1.564;2024-02-15T02:49:06;101352.48;;;13.70;79.35
80118;BME280;69424;48.770;-1.564;2024-02-15T02:49:41;101347.33;;;13.70;79.46
80118;BME280;69424;48.770;-1.564;2024-02-15T02:50:21;101347.86;;;13.70;79.37
80118;BME280;69424;48.770;-1.564;2024-02-15T02:50:56;101347.86;;;13.69;79.58
80118;BME280;69424;48.770;-1.564;2024-02-15T02:51:29;101348.04;;;13.69;79.45
80118;BME280;69424;48.770;-1.564;2024-02-15T02:52:03;101344.30;;;13.69;79.36
80118;BME280;69424;48.770;-1.564;2024-02-15T02:52:42;101349.81;;;13.69;79.48
80118;BME280;69424;48.770;-1.564;2024-02-15T02:53:16;101346.79;;;13.70;79.45
80118;BME280;69424;48.770;-1.564;2024-02-15T02:53:50;101346.43;;;13.70;79.45
80118;BME280;69424;48.770;-1.564;2024-02-15T02:54:24;101346.79;;;13.71;79.56
80118;BME280;69424;48.770;-1.564;2024-02-15T02:55:00;101346.45;;;13.71;79.45
80118;BME280;69424;48.770;-1.564;2024-02-15T02:55:34;101350.89;;;13.72;79.25
80118;BME280;69424;48.770;-1.564;2024-02-15T02:56:10;101351.06;;;13.72;79.32
80118;BME280;69424;48.770;-1.564;2024-02-15T02:56:46;101355.70;;;13.73;79.47
80118;BME280;69424;48.770;-1.564;2024-02-15T02:57:21;101355.89;;;13.74;79.41
80118;BME280;69424;48.770;-1.564;2024-02-15T02:57:55;101355.89;;;13.74;79.32
80118;BME280;69424;48.770;-1.564;2024-02-15T02:58:29;101355.19;;;13.76;79.39
80118;BME280;69424;48.770;-1.564;2024-02-15T02:59:02;101352.70;;;13.76;79.29
80118;BME280;69424;48.770;-1.564;2024-02-15T02:59:36;101359.10;;;13.78;79.32
80118;BME280;69424;48.770;-1.564;2024-02-15T03:00:14;101354.13;;;13.77;79.21